»·PEaware :: FFT247 KDEN-KBIL

FFT247 :: KDEN-KBIL

FLIGHT INFORMATION

Flight Status: Arrived
Operator:
Frontier Airlines
More flights by this operator :: More flights under this callsign
Pilot: Kai J. (30449)
Aircraft: Unknown
(A21N)
More flights by this aircraft type
Origin: KDEN Denver Intl
United States
Destination: KBIL Billings Logan Intl
United States
More flights between these airports :: More routes between these airports
Route: EXWNG1 EXWNG BGHRN BGHRN3
File this flight plan on PilotEdge
Remarks:
Altitude:
(Current/Filed)
38,000ft
Speed:
(Current/Filed)
450kts
Departed: 18-Jul-20 05:28 PM
Arrived: 18-Jul-20 06:38 PM
Distance/Time
Traveled:
395nm/1:10
Distance/Time
To Go:
Arrived

Flight Plot

Page will automatically refresh every two minutes.

Flight plan parsing failed; only flown route is shown


Map Options




Map Legend


Flown Route
Filed Route
Departure Airport
Arrival Airport
Navaid (VOR, NDB)
Fix

Horizontal Profiles

Position Reports

Time Latitude Longitude Heading Altitude Ground
Speed
18-Jul-20 16:53 39.853286 -104.673059 33 5328ft 0kts
18-Jul-20 16:54 39.853286 -104.673059 33 5328ft 0kts
18-Jul-20 16:55 39.853286 -104.673059 33 5329ft 0kts
18-Jul-20 16:56 39.853286 -104.673059 33 5329ft 0kts
18-Jul-20 16:57 39.853286 -104.673059 33 5329ft 0kts
18-Jul-20 16:58 39.853286 -104.673059 33 5329ft 0kts
18-Jul-20 16:59 39.853286 -104.673059 33 5329ft 0kts
18-Jul-20 17:00 39.853286 -104.673059 33 5329ft 0kts
18-Jul-20 17:01 39.853286 -104.673059 33 5329ft 0kts
18-Jul-20 17:02 39.853286 -104.673059 33 5329ft 0kts
18-Jul-20 17:03 39.853286 -104.673059 33 5329ft 0kts
18-Jul-20 17:04 39.853286 -104.673059 33 5329ft 0kts
18-Jul-20 17:05 39.853286 -104.673059 33 5329ft 0kts
18-Jul-20 17:06 39.853286 -104.673059 33 5329ft 0kts
18-Jul-20 17:07 39.853286 -104.673059 33 5329ft 0kts
18-Jul-20 17:08 39.853286 -104.673059 33 5329ft 0kts
18-Jul-20 17:09 39.853286 -104.673059 33 5329ft 0kts
18-Jul-20 17:10 39.853286 -104.673059 33 5329ft 0kts
18-Jul-20 17:11 39.853286 -104.673059 33 5329ft 0kts
18-Jul-20 17:12 39.853286 -104.673059 33 5329ft 0kts
18-Jul-20 17:13 39.853286 -104.673059 33 5329ft 0kts
18-Jul-20 17:14 39.853185 -104.673147 33 5329ft 2kts
18-Jul-20 17:15 39.852782 -104.673353 300 5329ft 1kts
18-Jul-20 17:16 39.852765 -104.673190 269 5329ft 0kts
18-Jul-20 17:17 39.852765 -104.673190 269 5329ft 0kts
18-Jul-20 17:18 39.852840 -104.675711 273 5329ft 12kts
18-Jul-20 17:19 39.852828 -104.680370 270 5329ft 8kts
18-Jul-20 17:20 39.853177 -104.684771 297 5329ft 10kts
18-Jul-20 17:21 39.857021 -104.685128 359 5329ft 16kts
18-Jul-20 17:22 39.861859 -104.685079 0 5329ft 11kts
18-Jul-20 17:23 39.863544 -104.685052 0 5329ft 0kts
18-Jul-20 17:24 39.864258 -104.685551 277 5329ft 4kts
18-Jul-20 17:25 39.864262 -104.685605 274 5329ft 0kts
18-Jul-20 17:26 39.865197 -104.687184 1 5329ft 13kts
18-Jul-20 17:27 39.902155 -104.687089 4 6896ft 189kts
18-Jul-20 17:28 39.956645 -104.685734 1 8981ft 222kts
18-Jul-20 17:29 40.027778 -104.684061 1 9994ft 294kts
18-Jul-20 17:31 40.114519 -104.677503 3 10951ft 344kts
18-Jul-20 17:32 40.213510 -104.688339 347 13565ft 367kts
18-Jul-20 17:33 40.315261 -104.717226 346 16363ft 381kts
18-Jul-20 17:34 40.419970 -104.746771 345 18944ft 394kts
18-Jul-20 17:35 40.528634 -104.777573 344 21254ft 408kts
18-Jul-20 17:36 40.641669 -104.809685 344 23393ft 423kts
18-Jul-20 17:37 40.757672 -104.843694 340 25400ft 433kts
18-Jul-20 17:38 40.866434 -104.911006 327 27221ft 438kts
18-Jul-20 17:39 40.973392 -104.991631 327 28828ft 448kts
18-Jul-20 17:40 41.081916 -105.073274 327 30486ft 451kts
18-Jul-20 17:41 41.189611 -105.154199 327 32483ft 441kts
18-Jul-20 17:42 41.294929 -105.233890 327 34245ft 433kts
18-Jul-20 17:43 41.398641 -105.312795 326 35719ft 427kts
18-Jul-20 17:44 41.502495 -105.387333 331 36879ft 427kts
18-Jul-20 17:45 41.609975 -105.453537 331 37799ft 426kts
18-Jul-20 17:45 41.699516 -105.508970 331 38232ft 427kts
18-Jul-20 17:47 41.825027 -105.587038 331 38239ft 426kts
18-Jul-20 17:48 41.932101 -105.653919 330 38240ft 425kts
18-Jul-20 17:48 42.020845 -105.709902 330 38221ft 424kts
18-Jul-20 17:49 42.127579 -105.777096 330 38179ft 423kts
18-Jul-20 17:51 42.251840 -105.855265 330 38166ft 423kts
18-Jul-20 17:52 42.358180 -105.922619 330 38168ft 423kts
18-Jul-20 17:52 42.446272 -105.978646 330 38172ft 422kts
18-Jul-20 17:53 42.552213 -106.046272 330 38177ft 421kts
18-Jul-20 17:55 42.675337 -106.125209 330 38170ft 420kts
18-Jul-20 17:55 42.763180 -106.181730 330 38154ft 418kts
18-Jul-20 17:56 42.860097 -106.244287 330 38148ft 417kts
18-Jul-20 17:57 42.964101 -106.311614 330 38148ft 415kts
18-Jul-20 17:58 43.068059 -106.379177 329 38147ft 414kts
18-Jul-20 17:59 43.172075 -106.446812 329 38154ft 412kts
18-Jul-20 18:00 43.274980 -106.514057 329 38163ft 411kts
18-Jul-20 18:01 43.377822 -106.581665 329 38163ft 411kts
18-Jul-20 18:02 43.480349 -106.649346 329 38164ft 409kts
18-Jul-20 18:03 43.582409 -106.717374 328 38163ft 408kts
18-Jul-20 18:04 43.684333 -106.785304 328 38163ft 408kts
18-Jul-20 18:05 43.786507 -106.853553 329 38159ft 408kts
18-Jul-20 18:06 43.888525 -106.921955 329 38142ft 408kts
18-Jul-20 18:07 43.990768 -106.990721 329 38128ft 409kts
18-Jul-20 18:08 44.091636 -107.058793 328 38115ft 402kts
18-Jul-20 18:09 44.192455 -107.126876 328 38117ft 402kts
18-Jul-20 18:10 44.292602 -107.194918 328 37532ft 397kts
18-Jul-20 18:11 44.390687 -107.261907 328 36539ft 393kts
18-Jul-20 18:12 44.488839 -107.329249 328 35197ft 397kts
18-Jul-20 18:13 44.588507 -107.397910 328 32331ft 403kts
18-Jul-20 18:14 44.690021 -107.468075 328 29088ft 414kts
18-Jul-20 18:15 44.794703 -107.540971 329 26169ft 415kts
18-Jul-20 18:16 44.896215 -107.611880 328 25176ft 404kts
18-Jul-20 18:17 44.996087 -107.682313 328 23542ft 397kts
18-Jul-20 18:18 45.092780 -107.750727 328 21412ft 380kts
18-Jul-20 18:19 45.185368 -107.816065 328 19532ft 363kts
18-Jul-20 18:20 45.266832 -107.884816 316 18767ft 326kts
18-Jul-20 18:21 45.336341 -107.965692 316 17032ft 321kts
18-Jul-20 18:22 45.404855 -108.045937 317 15196ft 319kts
18-Jul-20 18:23 45.473068 -108.126000 317 13422ft 317kts
18-Jul-20 18:24 45.535165 -108.201076 311 12339ft 265kts
18-Jul-20 18:25 45.581024 -108.286296 305 10980ft 276kts
18-Jul-20 18:26 45.626055 -108.374262 306 9571ft 271kts
18-Jul-20 18:27 45.669747 -108.459748 307 8406ft 253kts
18-Jul-20 18:28 45.703477 -108.546132 292 7747ft 249kts
18-Jul-20 18:29 45.728696 -108.636803 293 6589ft 237kts
18-Jul-20 18:30 45.751693 -108.723642 290 6211ft 232kts
18-Jul-20 18:31 45.778242 -108.804169 331 6210ft 204kts
18-Jul-20 18:32 45.830495 -108.786562 20 5981ft 199kts
18-Jul-20 18:33 45.864903 -108.735364 95 5991ft 190kts
18-Jul-20 18:34 45.844006 -108.666447 107 5551ft 172kts
18-Jul-20 18:35 45.827553 -108.607393 109 4811ft 154kts
18-Jul-20 18:36 45.812324 -108.553339 109 3610ft 141kts
18-Jul-20 18:37 45.804596 -108.529741 276 3523ft 14kts
18-Jul-20 18:38 45.804913 -108.533647 288 3539ft 13kts
18-Jul-20 18:39 45.804806 -108.536365 179 3550ft 0kts
18-Jul-20 18:40 45.804765 -108.536365 179 3550ft 0kts
18-Jul-20 18:41 45.804765 -108.536365 179 3550ft 0kts
18-Jul-20 18:42 45.804765 -108.536365 179 3550ft 0kts
18-Jul-20 18:43 45.804765 -108.536365 179 3550ft 0kts
18-Jul-20 18:44 45.804765 -108.536365 179 3550ft 0kts

Navigation Log

Ident Type
Flight plan parsing failed, navigation log unavailable